createdAt,value
2019-04-03T00:00:16.771Z,61.20
2019-04-03T00:02:43.873Z,61.30
2019-04-03T00:05:11.163Z,61.90
2019-04-03T00:07:38.615Z,62.30
2019-04-03T00:10:07.393Z,62.70
2019-04-03T00:12:35.006Z,62.60
2019-04-03T00:15:02.207Z,62.50
2019-04-03T00:17:29.668Z,61.90
2019-04-03T00:19:57.627Z,62.20
2019-04-03T00:22:24.955Z,62.50
2019-04-03T00:24:52.833Z,62.50
2019-04-03T00:27:21.973Z,62.70
2019-04-03T00:29:50.517Z,62.70
2019-04-03T00:32:18.553Z,63.10
2019-04-03T00:34:45.910Z,63.30
2019-04-03T00:37:13.183Z,63.00
2019-04-03T00:39:40.341Z,62.80
2019-04-03T00:42:07.609Z,62.70
2019-04-03T00:44:35.014Z,62.90
2019-04-03T00:47:02.511Z,63.10
2019-04-03T00:49:29.882Z,63.20
2019-04-03T00:51:58.017Z,63.20
2019-04-03T00:54:26.417Z,62.90
2019-04-03T00:56:56.105Z,64.00
2019-04-03T00:59:22.920Z,64.10
2019-04-03T01:01:50.430Z,64.80
2019-04-03T01:04:17.877Z,64.10
2019-04-03T01:06:45.251Z,64.60
2019-04-03T01:09:12.726Z,64.80
2019-04-03T01:11:40.107Z,64.40
2019-04-03T01:14:07.383Z,65.00
2019-04-03T01:16:34.645Z,66.10
2019-04-03T01:19:01.902Z,67.50
2019-04-03T01:21:30.186Z,70.00
2019-04-03T01:23:57.383Z,70.80
2019-04-03T01:26:24.642Z,71.20
2019-04-03T01:28:51.886Z,71.20
2019-04-03T01:31:19.359Z,72.10
2019-04-03T01:33:47.197Z,70.90
2019-04-03T01:36:17.219Z,71.90
2019-04-03T01:38:43.689Z,71.70
2019-04-03T01:41:11.017Z,72.60
2019-04-03T01:43:39.256Z,72.40
2019-04-03T01:46:06.898Z,72.70
2019-04-03T01:48:34.151Z,73.30
2019-04-03T01:51:01.367Z,72.10
2019-04-03T01:53:28.847Z,72.10
2019-04-03T01:55:56.236Z,72.60
2019-04-03T01:58:23.357Z,72.30
2019-04-03T02:00:50.508Z,72.80
2019-04-03T02:03:17.866Z,72.80
2019-04-03T02:05:45.227Z,72.20
2019-04-03T02:08:14.158Z,71.90
2019-04-03T02:10:41.752Z,72.30
2019-04-03T02:13:09.070Z,73.10
2019-04-03T02:15:36.433Z,73.50
2019-04-03T02:18:03.832Z,73.20
2019-04-03T02:20:30.996Z,73.40
2019-04-03T02:23:00.262Z,74.20
2019-04-03T02:25:27.715Z,73.70
2019-04-03T02:27:55.158Z,74.00
2019-04-03T02:30:22.674Z,75.00
2019-04-03T02:32:49.933Z,75.10
2019-04-03T02:35:17.122Z,75.00
2019-04-03T02:37:46.112Z,75.70
2019-04-03T02:40:13.326Z,76.40
2019-04-03T02:42:41.980Z,76.50
2019-04-03T02:45:09.827Z,76.20
2019-04-03T02:47:37.305Z,76.60
2019-04-03T02:50:04.810Z,76.60
2019-04-03T02:52:32.038Z,76.30
2019-04-03T02:54:59.354Z,75.80
2019-04-03T02:57:26.567Z,76.80
2019-04-03T02:59:58.256Z,76.70
2019-04-03T03:02:23.454Z,77.20
2019-04-03T03:04:53.918Z,77.70
2019-04-03T03:07:20.042Z,77.70
2019-04-03T03:09:47.803Z,78.80
2019-04-03T03:12:15.714Z,79.50
2019-04-03T03:14:43.243Z,79.60
2019-04-03T03:17:11.252Z,80.80
2019-04-03T03:19:39.007Z,80.70
2019-04-03T03:22:06.831Z,80.40
2019-04-03T03:24:34.471Z,80.90
2019-04-03T03:27:01.954Z,81.30
2019-04-03T03:29:29.430Z,81.20
2019-04-03T03:32:10.114Z,82.00
2019-04-03T03:34:49.252Z,82.60
2019-04-03T03:37:00.665Z,83.00
2019-04-03T03:39:25.623Z,83.10
2019-04-03T03:41:57.525Z,83.30
2019-04-03T03:44:25.091Z,83.60
2019-04-03T03:46:53.072Z,84.30
2019-04-03T03:49:21.121Z,83.90
2019-04-03T03:51:48.635Z,84.20
2019-04-03T03:54:18.459Z,84.80
2019-04-03T03:56:45.413Z,84.50
2019-04-03T03:59:16.369Z,85.00
2019-04-03T04:01:41.829Z,85.00
2019-04-03T04:04:12.986Z,84.80
2019-04-03T04:06:38.535Z,85.00
2019-04-03T04:09:06.415Z,85.90
2019-04-03T04:11:34.266Z,85.90
2019-04-03T04:14:01.543Z,86.90
2019-04-03T04:16:28.862Z,87.10
2019-04-03T04:18:57.753Z,87.30
2019-04-03T04:21:25.328Z,86.10
2019-04-03T04:23:56.047Z,86.90
2019-04-03T04:26:23.147Z,87.50
2019-04-03T04:28:50.474Z,87.60
2019-04-03T04:31:17.849Z,88.30
2019-04-03T04:33:47.979Z,88.10
2019-04-03T04:36:15.677Z,88.90
2019-04-03T04:38:43.040Z,88.90
2019-04-03T04:41:11.440Z,89.20
2019-04-03T04:43:39.395Z,89.00
2019-04-03T04:46:09.257Z,88.80
2019-04-03T04:48:36.354Z,88.70
2019-04-03T04:51:03.619Z,89.40
2019-04-03T04:53:31.103Z,89.40
2019-04-03T04:55:58.343Z,89.30
2019-04-03T04:58:25.562Z,89.20
2019-04-03T05:00:53.731Z,88.50
2019-04-03T05:03:21.840Z,87.80
2019-04-03T05:05:49.638Z,88.30
2019-04-03T05:08:16.979Z,87.50
2019-04-03T05:10:44.266Z,88.00
2019-04-03T05:13:11.507Z,87.20
2019-04-03T05:15:38.902Z,87.70
2019-04-03T05:18:06.046Z,87.80
2019-04-03T05:20:33.409Z,88.60
2019-04-03T05:23:01.110Z,88.10
2019-04-03T05:25:29.839Z,87.90
2019-04-03T05:27:57.783Z,88.50
2019-04-03T05:30:29.321Z,88.30
2019-04-03T05:32:56.852Z,88.90
2019-04-03T05:35:24.107Z,88.10
2019-04-03T05:37:51.725Z,88.40
2019-04-03T05:40:20.072Z,87.90
2019-04-03T05:42:47.528Z,88.60
2019-04-03T05:45:14.656Z,89.70
2019-04-03T05:47:42.031Z,89.10
2019-04-03T05:50:09.371Z,89.90
2019-04-03T05:52:36.445Z,89.00
2019-04-03T05:55:03.843Z,89.60
2019-04-03T05:57:31.581Z,89.30
2019-04-03T06:00:01.834Z,89.60
2019-04-03T06:02:28.405Z,88.70
2019-04-03T06:04:55.748Z,88.40
2019-04-03T06:07:23.175Z,88.50
2019-04-03T06:09:51.910Z,88.40
2019-04-03T06:12:20.493Z,88.70
2019-04-03T06:14:49.579Z,88.40
2019-04-03T06:17:16.878Z,89.20
2019-04-03T06:19:44.286Z,89.10
2019-04-03T06:22:11.888Z,89.50
2019-04-03T06:24:39.506Z,89.20
2019-04-03T06:27:09.081Z,89.40
2019-04-03T06:29:35.978Z,88.70
2019-04-03T06:32:05.794Z,88.70
2019-04-03T06:34:32.607Z,89.20
2019-04-03T06:36:59.957Z,88.00
2019-04-03T06:39:30.125Z,87.70
2019-04-03T06:41:56.256Z,86.90
2019-04-03T06:44:23.584Z,87.50
2019-04-03T06:46:53.682Z,87.30
2019-04-03T06:49:19.940Z,87.90
2019-04-03T06:51:48.712Z,88.50
2019-04-03T06:54:16.710Z,88.80
2019-04-03T06:56:44.076Z,88.90
2019-04-03T06:59:11.530Z,88.20
2019-04-03T07:01:38.973Z,88.30
2019-04-03T07:04:07.357Z,89.10
2019-04-03T07:06:34.452Z,88.50
2019-04-03T07:09:04.721Z,87.40
2019-04-03T07:11:31.399Z,85.90
2019-04-03T07:13:58.563Z,85.80
2019-04-03T07:16:26.805Z,85.00
2019-04-03T07:18:55.171Z,83.50
2019-04-03T07:21:22.745Z,83.90
2019-04-03T07:23:50.855Z,84.20
2019-04-03T07:26:18.080Z,83.50
2019-04-03T07:28:45.700Z,82.90
2019-04-03T07:31:13.151Z,82.50
2019-04-03T07:33:40.512Z,82.10
2019-04-03T07:36:10.206Z,82.40
2019-04-03T07:38:37.608Z,82.20
2019-04-03T07:41:05.153Z,82.30
2019-04-03T07:43:32.591Z,82.70
2019-04-03T07:46:00.043Z,82.60
2019-04-03T07:48:27.338Z,82.70
2019-04-03T07:50:54.694Z,82.90
2019-04-03T07:53:21.919Z,82.30
2019-04-03T07:55:49.353Z,81.70
2019-04-03T07:58:16.677Z,82.70
2019-04-03T08:00:44.161Z,82.20
2019-04-03T08:03:11.412Z,81.80
2019-04-03T08:05:38.647Z,81.90
2019-04-03T08:08:06.010Z,81.40
2019-04-03T08:10:33.492Z,80.70
2019-04-03T08:13:00.887Z,81.00
2019-04-03T08:15:28.142Z,80.40
2019-04-03T08:17:57.119Z,79.60
2019-04-03T08:20:26.032Z,79.60
2019-04-03T08:22:53.836Z,79.40
2019-04-03T08:25:22.289Z,79.80
2019-04-03T08:27:49.510Z,79.30
2019-04-03T08:30:16.847Z,78.70
2019-04-03T08:32:45.667Z,80.00
2019-04-03T08:35:21.838Z,81.00
2019-04-03T08:37:43.016Z,81.50
2019-04-03T08:40:10.631Z,82.30
2019-04-03T08:42:38.030Z,82.40
2019-04-03T08:45:07.132Z,83.60
2019-04-03T08:47:37.112Z,83.00
2019-04-03T08:50:04.535Z,82.30
2019-04-03T08:52:32.064Z,82.00
2019-04-03T08:54:59.407Z,80.60
2019-04-03T08:57:26.660Z,81.40
2019-04-03T08:59:53.873Z,82.70
2019-04-03T09:02:21.099Z,82.90
2019-04-03T09:04:48.776Z,83.50
2019-04-03T09:07:16.171Z,83.30
2019-04-03T09:09:43.940Z,82.40
2019-04-03T09:12:11.147Z,81.20
2019-04-03T09:14:38.628Z,81.80
2019-04-03T09:17:05.853Z,82.10
2019-04-03T09:19:33.153Z,81.70
2019-04-03T09:22:00.757Z,83.20
2019-04-03T09:24:29.658Z,82.80
2019-04-03T09:26:57.503Z,81.60
2019-04-03T09:29:24.715Z,83.00
2019-04-03T09:31:53.194Z,83.30
2019-04-03T09:34:21.094Z,83.60
2019-04-03T09:36:48.348Z,82.90
2019-04-03T09:39:15.898Z,82.40
2019-04-03T09:41:43.274Z,82.30
2019-04-03T09:44:10.713Z,81.10
2019-04-03T09:46:38.092Z,81.30
2019-04-03T09:49:05.783Z,80.60
2019-04-03T09:51:34.386Z,80.80
2019-04-03T09:54:01.612Z,79.10
2019-04-03T09:56:29.076Z,80.70
2019-04-03T09:58:56.760Z,80.30
2019-04-03T10:01:24.066Z,80.60
2019-04-03T10:03:53.903Z,79.70
2019-04-03T10:06:20.930Z,78.60
2019-04-03T10:08:48.252Z,79.40
2019-04-03T10:11:15.867Z,78.70
2019-04-03T10:13:43.965Z,77.40
2019-04-03T10:16:11.215Z,77.10
2019-04-03T10:18:39.082Z,77.40
2019-04-03T10:21:07.937Z,77.00
2019-04-03T10:23:35.459Z,77.30
2019-04-03T10:26:02.859Z,75.60
2019-04-03T10:28:30.239Z,74.10
2019-04-03T10:30:57.418Z,75.30
2019-04-03T10:33:24.799Z,76.20
2019-04-03T10:35:52.174Z,76.30
2019-04-03T10:38:19.535Z,74.80
2019-04-03T10:40:46.816Z,77.00
2019-04-03T10:43:14.273Z,73.70
2019-04-03T10:45:41.673Z,73.20
2019-04-03T10:48:09.129Z,73.60
2019-04-03T10:50:38.036Z,73.00
2019-04-03T10:53:05.667Z,72.80
2019-04-03T10:55:33.059Z,72.70
2019-04-03T10:58:01.898Z,71.80
2019-04-03T11:00:29.905Z,71.60
2019-04-03T11:02:57.356Z,71.70
2019-04-03T11:05:25.064Z,70.80
2019-04-03T11:07:52.525Z,71.00
2019-04-03T11:10:20.139Z,71.30
2019-04-03T11:12:47.661Z,71.60
2019-04-03T11:15:15.183Z,70.90
2019-04-03T11:17:42.829Z,70.90
2019-04-03T11:20:12.903Z,70.40
2019-04-03T11:22:42.732Z,70.00
2019-04-03T11:25:14.785Z,69.90
2019-04-03T11:27:44.532Z,69.80
2019-04-03T11:30:16.989Z,69.10
2019-04-03T11:32:42.121Z,69.20
2019-04-03T11:35:11.727Z,68.80
2019-04-03T11:37:38.906Z,67.30
2019-04-03T11:40:07.351Z,69.40
2019-04-03T11:42:34.701Z,68.00
2019-04-03T11:45:04.359Z,68.30
2019-04-03T11:47:31.346Z,68.20
2019-04-03T11:49:58.909Z,68.60
2019-04-03T11:52:26.554Z,68.40
2019-04-03T11:54:53.956Z,69.50
2019-04-03T11:57:21.345Z,68.10
2019-04-03T11:59:49.072Z,67.90
2019-04-03T12:02:16.511Z,69.40
2019-04-03T12:04:44.583Z,66.90
2019-04-03T12:07:12.133Z,66.60
2019-04-03T12:09:39.570Z,66.70
2019-04-03T12:12:08.936Z,66.60
2019-04-03T12:14:36.302Z,66.60
2019-04-03T12:17:03.627Z,66.30
2019-04-03T12:19:30.934Z,66.10
2019-04-03T12:21:58.162Z,66.60
2019-04-03T12:24:25.474Z,67.10
2019-04-03T12:26:55.433Z,66.80
2019-04-03T12:29:22.722Z,66.90
2019-04-03T12:31:50.446Z,67.10
2019-04-03T12:34:17.714Z,68.10
2019-04-03T12:36:46.229Z,68.20
2019-04-03T12:39:24.805Z,74.00
2019-04-03T12:41:54.933Z,75.90
2019-04-03T12:44:22.688Z,76.50
2019-04-03T12:46:50.064Z,77.00
2019-04-03T12:49:17.468Z,77.50
2019-04-03T12:51:45.052Z,77.60
2019-04-03T12:54:13.398Z,77.50
2019-04-03T12:56:41.518Z,77.70
2019-04-03T12:59:09.531Z,77.30
2019-04-03T13:01:37.785Z,78.10
2019-04-03T13:04:05.100Z,78.20
2019-04-03T13:06:32.565Z,78.20
2019-04-03T13:09:00.027Z,78.40
2019-04-03T13:11:27.364Z,78.50
2019-04-03T13:13:54.702Z,78.50
2019-04-03T13:16:22.588Z,78.60
2019-04-03T13:18:49.911Z,78.60
2019-04-03T13:21:17.531Z,78.10
2019-04-03T13:23:45.800Z,78.00
2019-04-03T13:26:13.500Z,78.10
2019-04-03T13:28:41.110Z,77.10
2019-04-03T13:31:08.794Z,77.90
2019-04-03T13:33:37.688Z,78.50
2019-04-03T13:36:06.176Z,79.80
2019-04-03T13:38:33.929Z,79.00
2019-04-03T13:41:04.491Z,79.10
2019-04-03T13:43:30.713Z,79.00
2019-04-03T13:45:58.004Z,78.10
2019-04-03T13:48:25.351Z,77.70
2019-04-03T13:50:54.884Z,78.40
2019-04-03T13:53:25.052Z,77.40
2019-04-03T13:55:52.267Z,77.40
2019-04-03T13:58:21.194Z,77.00
2019-04-03T14:00:59.406Z,77.00
2019-04-03T14:03:19.386Z,77.10
2019-04-03T14:05:47.296Z,77.00
2019-04-03T14:08:14.691Z,77.50
2019-04-03T14:10:41.946Z,77.90
2019-04-03T14:13:11.823Z,77.80
2019-04-03T14:15:41.011Z,78.50
2019-04-03T14:18:08.618Z,78.40
2019-04-03T14:20:36.544Z,78.90
2019-04-03T14:23:04.817Z,79.30
2019-04-03T14:25:37.145Z,79.30
2019-04-03T14:28:02.824Z,78.60
2019-04-03T14:30:30.583Z,79.20
2019-04-03T14:32:57.991Z,78.90
2019-04-03T14:35:55.263Z,79.40
2019-04-03T14:37:58.301Z,79.10
2019-04-03T14:40:23.820Z,79.30
2019-04-03T14:42:51.085Z,79.70
2019-04-03T14:45:18.787Z,80.50
2019-04-03T14:47:46.378Z,80.80
2019-04-03T14:50:13.920Z,81.30
2019-04-03T14:52:41.328Z,81.70
2019-04-03T14:55:19.784Z,81.90
2019-04-03T14:57:38.225Z,81.90
2019-04-03T15:00:23.935Z,82.40
2019-04-03T15:02:34.913Z,81.50
2019-04-03T15:05:02.314Z,81.70
2019-04-03T15:07:29.792Z,82.50
2019-04-03T15:09:57.231Z,83.00
2019-04-03T15:12:26.105Z,83.70
2019-04-03T15:14:54.463Z,83.70
2019-04-03T15:17:22.538Z,84.30
2019-04-03T15:19:49.881Z,84.60
2019-04-03T15:22:17.231Z,85.70
2019-04-03T15:24:44.658Z,84.90
2019-04-03T15:27:12.237Z,85.10
2019-04-03T15:29:39.658Z,84.60
2019-04-03T15:32:07.351Z,84.20
2019-04-03T15:34:34.675Z,84.80
2019-04-03T15:37:01.922Z,85.40
2019-04-03T15:39:29.917Z,86.20
2019-04-03T15:41:57.528Z,87.50
2019-04-03T15:44:27.391Z,88.10
2019-04-03T15:46:54.036Z,85.90
2019-04-03T15:49:21.393Z,86.30
2019-04-03T15:51:48.481Z,87.70
2019-04-03T15:54:16.141Z,87.60
2019-04-03T15:56:44.827Z,88.80
2019-04-03T15:59:13.062Z,87.20
2019-04-03T16:01:40.530Z,86.70
2019-04-03T16:04:08.024Z,86.90
2019-04-03T16:06:36.518Z,87.70
2019-04-03T16:09:06.851Z,87.10
2019-04-03T16:11:34.626Z,87.40
2019-04-03T16:14:07.374Z,88.00
2019-04-03T16:16:34.996Z,88.60
2019-04-03T16:19:08.877Z,87.60
2019-04-03T16:21:34.095Z,88.00
2019-04-03T16:24:01.629Z,87.70
2019-04-03T16:26:28.895Z,88.00
2019-04-03T16:28:56.907Z,88.80
2019-04-03T16:31:24.328Z,89.20
2019-04-03T16:33:51.676Z,89.50
2019-04-03T16:36:19.183Z,89.10
2019-04-03T16:38:46.882Z,88.30
2019-04-03T16:41:14.240Z,89.20
2019-04-03T16:43:41.588Z,88.90
2019-04-03T16:46:11.321Z,88.80
2019-04-03T16:48:39.226Z,88.80
2019-04-03T16:51:07.082Z,89.30
2019-04-03T16:53:34.570Z,88.50
2019-04-03T16:56:02.492Z,88.70
2019-04-03T16:58:31.299Z,88.10
2019-04-03T17:00:58.913Z,88.30
2019-04-03T17:03:27.404Z,88.70
2019-04-03T17:05:55.318Z,88.30
2019-04-03T17:08:26.813Z,89.00
2019-04-03T17:11:02.912Z,89.40
2019-04-03T17:13:33.781Z,88.60
2019-04-03T17:16:16.242Z,89.30
2019-04-03T17:18:55.066Z,89.30
2019-04-03T17:21:41.661Z,89.50
2019-04-03T17:24:16.035Z,89.60
2019-04-03T17:26:56.073Z,90.30
2019-04-03T17:29:27.782Z,89.90
2019-04-03T17:32:09.705Z,90.00
2019-04-03T17:34:43.036Z,89.90
2019-04-03T17:37:20.512Z,90.60
2019-04-03T17:39:52.472Z,91.00
2019-04-03T17:42:25.889Z,89.00
2019-04-03T17:45:01.273Z,90.30
2019-04-03T17:47:29.627Z,90.50
2019-04-03T17:50:06.211Z,90.50
2019-04-03T17:52:43.017Z,90.10
2019-04-03T17:55:17.449Z,89.60
2019-04-03T17:58:02.770Z,89.50
2019-04-03T18:00:22.094Z,90.20
2019-04-03T18:02:49.497Z,89.60
2019-04-03T18:05:17.551Z,89.50
2019-04-03T18:07:46.462Z,89.40
2019-04-03T18:10:22.119Z,89.40
2019-04-03T18:12:53.831Z,89.60
2019-04-03T18:15:27.242Z,89.10
2019-04-03T18:17:57.115Z,89.40
2019-04-03T18:20:29.195Z,90.40
2019-04-03T18:22:57.046Z,89.20
2019-04-03T18:25:29.542Z,89.60
2019-04-03T18:28:00.246Z,90.40
2019-04-03T18:30:27.707Z,88.70
2019-04-03T18:32:59.915Z,88.90
2019-04-03T18:35:30.735Z,87.80
2019-04-03T18:38:07.730Z,87.80
2019-04-03T18:40:40.227Z,87.60
2019-04-03T18:43:12.800Z,88.10
2019-04-03T18:45:40.267Z,88.40
2019-04-03T18:48:16.683Z,88.80
2019-04-03T18:50:46.038Z,88.80
2019-04-03T18:53:20.041Z,88.10
2019-04-03T18:55:56.802Z,88.60
2019-04-03T18:58:38.046Z,88.30
2019-04-03T19:01:05.578Z,87.30
2019-04-03T19:03:32.844Z,88.10
2019-04-03T19:06:00.198Z,86.50
2019-04-03T19:08:27.674Z,87.30
2019-04-03T19:11:02.610Z,87.10
2019-04-03T19:13:35.240Z,87.50
2019-04-03T19:16:02.637Z,86.50
2019-04-03T19:18:36.892Z,87.90
2019-04-03T19:21:04.241Z,87.00
2019-04-03T19:23:31.704Z,87.20
2019-04-03T19:26:03.383Z,86.60
2019-04-03T19:28:40.392Z,85.70
2019-04-03T19:31:13.616Z,85.40
2019-04-03T19:33:44.703Z,85.20
2019-04-03T19:36:20.294Z,87.40
2019-04-03T19:38:47.869Z,86.50
2019-04-03T19:41:15.244Z,85.80
2019-04-03T19:43:44.014Z,87.20
2019-04-03T19:46:15.120Z,86.70
2019-04-03T19:48:43.292Z,87.60
2019-04-03T19:51:10.792Z,87.20
2019-04-03T19:53:38.238Z,88.30
2019-04-03T19:56:05.648Z,88.70
2019-04-03T19:58:33.169Z,87.50
2019-04-03T20:01:03.638Z,86.60
2019-04-03T20:03:30.705Z,86.40
2019-04-03T20:05:58.058Z,86.80
2019-04-03T20:08:33.445Z,86.90
2019-04-03T20:11:04.907Z,87.30
2019-04-03T20:13:32.392Z,86.90
2019-04-03T20:16:00.780Z,86.60
2019-04-03T20:18:28.192Z,86.80
2019-04-03T20:20:55.480Z,87.10
2019-04-03T20:23:23.146Z,87.20
2019-04-03T20:25:50.472Z,86.90
2019-04-03T20:28:18.090Z,87.00
2019-04-03T20:30:45.844Z,87.80
2019-04-03T20:33:14.249Z,88.00
2019-04-03T20:35:41.730Z,87.20
2019-04-03T20:38:11.414Z,87.10
2019-04-03T20:40:56.646Z,86.10
2019-04-03T20:43:20.964Z,86.10
2019-04-03T20:45:49.794Z,86.20
2019-04-03T20:48:18.165Z,86.60
2019-04-03T20:50:46.201Z,86.30
2019-04-03T20:53:16.814Z,86.80
2019-04-03T20:55:42.878Z,86.50
2019-04-03T20:58:10.136Z,85.90
2019-04-03T21:00:37.548Z,85.90
2019-04-03T21:03:05.511Z,85.30
2019-04-03T21:05:32.898Z,86.00
2019-04-03T21:08:00.256Z,85.60
2019-04-03T21:10:27.717Z,86.50
2019-04-03T21:12:56.223Z,86.50
2019-04-03T21:15:23.713Z,86.70
2019-04-03T21:17:51.440Z,87.10
2019-04-03T21:20:18.701Z,85.50
2019-04-03T21:22:46.150Z,87.10
2019-04-03T21:25:13.723Z,87.80
2019-04-03T21:27:41.086Z,88.00
2019-04-03T21:30:12.238Z,88.50
2019-04-03T21:32:42.520Z,88.00
2019-04-03T21:35:09.881Z,87.80
2019-04-03T21:37:39.682Z,86.40
2019-04-03T21:40:09.318Z,86.80
2019-04-03T21:42:36.629Z,87.00
2019-04-03T21:45:07.297Z,86.50
2019-04-03T21:47:34.616Z,88.10
2019-04-03T21:50:03.611Z,87.20
2019-04-03T21:52:31.315Z,86.50
2019-04-03T21:54:59.071Z,86.80
2019-04-03T21:57:32.879Z,87.80
2019-04-03T22:00:00.436Z,86.80
2019-04-03T22:02:27.870Z,86.40
2019-04-03T22:04:55.227Z,85.90
2019-04-03T22:07:22.458Z,87.20
2019-04-03T22:10:15.408Z,88.00
2019-04-03T22:20:58.047Z,88.70
2019-04-03T22:23:25.248Z,89.50
2019-04-03T22:25:52.489Z,89.50
2019-04-03T22:28:19.735Z,89.50
2019-04-03T22:30:47.044Z,89.60
2019-04-03T22:33:15.737Z,89.60
2019-04-03T22:35:42.901Z,89.40
2019-04-03T22:38:10.266Z,89.40
2019-04-03T22:40:39.111Z,89.40
2019-04-03T22:43:06.993Z,89.30
2019-04-03T22:45:34.636Z,89.60
2019-04-03T22:48:02.108Z,89.90
2019-04-03T22:50:29.317Z,90.10
2019-04-03T22:52:56.821Z,90.30
2019-04-03T22:55:25.056Z,89.30
2019-04-03T22:57:52.287Z,89.40
2019-04-03T23:00:19.600Z,90.20
2019-04-03T23:02:47.088Z,90.20
2019-04-03T23:05:16.755Z,90.40
2019-04-03T23:07:46.012Z,89.70
2019-04-03T23:10:13.328Z,90.40
2019-04-03T23:12:40.872Z,90.30
2019-04-03T23:15:09.687Z,90.10
2019-04-03T23:17:37.135Z,90.30
2019-04-03T23:20:05.440Z,90.30
2019-04-03T23:22:33.018Z,90.00
2019-04-03T23:25:00.634Z,89.40
2019-04-03T23:27:28.271Z,89.70
2019-04-03T23:29:55.552Z,89.60
2019-04-03T23:32:22.846Z,89.50
2019-04-03T23:34:50.243Z,89.20
2019-04-03T23:37:17.490Z,89.30
2019-04-03T23:39:44.844Z,89.30
2019-04-03T23:42:12.344Z,89.40
2019-04-03T23:44:41.823Z,89.30
2019-04-03T23:47:08.848Z,88.70
2019-04-03T23:49:36.100Z,89.40
2019-04-03T23:52:03.765Z,89.20
2019-04-03T23:54:33.562Z,89.60
2019-04-03T23:57:00.648Z,89.80
2019-04-03T23:59:28.240Z,90.20
